createdAt,value
2023-03-28T00:00:02.804Z,1018.69
2023-03-28T00:05:04.120Z,1018.58
2023-03-28T00:10:03.641Z,1018.9
2023-03-28T00:15:03.159Z,1018.93
2023-03-28T00:20:03.144Z,1018.95
2023-03-28T00:25:02.841Z,1019.02
2023-03-28T00:30:03.564Z,1019.12
2023-03-28T00:35:02.848Z,1019.19
2023-03-28T00:40:03.719Z,1019.21
2023-03-28T00:45:03.391Z,1019.16
2023-03-28T00:50:03.205Z,1019.16
2023-03-28T00:55:03.165Z,1019.16
2023-03-28T01:00:03.200Z,1019.21
2023-03-28T01:05:03.807Z,1019.31
2023-03-28T01:10:03.542Z,1019.26
2023-03-28T01:15:04.373Z,1019.32
2023-03-28T01:20:02.924Z,1019.44
2023-03-28T01:25:03.659Z,1019.39
2023-03-28T01:30:03.542Z,1019.47
2023-03-28T01:35:03.150Z,1019.57
2023-03-28T01:40:02.911Z,1019.6
2023-03-28T01:45:03.703Z,1019.4
2023-03-28T01:50:03.782Z,1019.54
2023-03-28T01:55:03.521Z,1019.51
2023-03-28T02:00:03.587Z,1019.55
2023-03-28T02:05:03.112Z,1019.59
2023-03-28T02:10:02.892Z,1019.61
2023-03-28T02:15:02.780Z,1019.72
2023-03-28T02:20:02.588Z,1019.88
2023-03-28T02:25:03.567Z,1020.03
2023-03-28T02:30:03.571Z,1019.92
2023-03-28T02:35:03.137Z,1019.89
2023-03-28T02:40:02.862Z,1019.99
2023-03-28T02:45:03.804Z,1020.14
2023-03-28T02:50:03.655Z,1020.14
2023-03-28T02:55:04.057Z,1020.22
2023-03-28T03:00:03.363Z,1020.36
2023-03-28T03:05:03.789Z,1020.36
2023-03-28T03:10:03.459Z,1020.42
2023-03-28T03:15:03.126Z,1020.58
2023-03-28T03:20:02.461Z,1020.68
2023-03-28T03:25:03.644Z,1020.59
2023-03-28T03:30:03.328Z,1020.62
2023-03-28T03:35:03.256Z,1020.83
2023-03-28T03:40:03.200Z,1020.81
2023-03-28T03:45:02.816Z,1020.82
2023-03-28T03:50:03.532Z,1020.91
2023-03-28T03:55:03.444Z,1020.95
2023-03-28T04:00:03.335Z,1020.97
2023-03-28T04:05:02.992Z,1021.13
2023-03-28T04:10:03.710Z,1021.21
2023-03-28T04:15:03.700Z,1021.22
2023-03-28T04:20:03.511Z,1021.36
2023-03-28T04:25:03.437Z,1021.48
2023-03-28T04:30:03.142Z,1021.53
2023-03-28T04:35:03.010Z,1021.73
2023-03-28T04:40:03.664Z,1021.91
2023-03-28T04:45:03.697Z,1021.93
2023-03-28T04:50:02.501Z,1022.11
2023-03-28T04:55:03.455Z,1022.13
2023-03-28T05:00:03.588Z,1022.33
2023-03-28T05:05:03.272Z,1022.36
2023-03-28T05:10:03.219Z,1022.43
2023-03-28T05:15:02.954Z,1022.52
2023-03-28T05:20:03.624Z,1022.65
2023-03-28T05:25:03.499Z,1022.75
2023-03-28T05:30:03.592Z,1022.76
2023-03-28T05:35:03.292Z,1022.84
2023-03-28T05:40:03.082Z,1022.93
2023-03-28T05:45:02.902Z,1023.06
2023-03-28T05:50:03.560Z,1023.13
2023-03-28T05:55:04.296Z,1023.14
2023-03-28T06:00:03.771Z,1023.24
2023-03-28T06:05:03.896Z,1023.33
2023-03-28T06:10:03.322Z,1023.43
2023-03-28T06:15:03.162Z,1023.41
2023-03-28T06:20:02.814Z,1023.43
2023-03-28T06:25:02.895Z,1023.46
2023-03-28T06:30:03.636Z,1023.57
2023-03-28T06:35:03.353Z,1023.52
2023-03-28T06:40:03.147Z,1023.67
2023-03-28T06:45:02.904Z,1023.72
2023-03-28T06:50:03.594Z,1023.81
2023-03-28T06:55:03.657Z,1023.87
2023-03-28T07:00:03.324Z,1024.01
2023-03-28T07:05:03.079Z,1024.11
2023-03-28T07:10:03.050Z,1024.13
2023-03-28T07:15:03.495Z,1024.27
2023-03-28T07:20:03.479Z,1024.31
2023-03-28T07:25:03.569Z,1024.42
2023-03-28T07:30:03.370Z,1024.3
2023-03-28T07:35:03.023Z,1024.45
2023-03-28T07:40:03.742Z,1024.41
2023-03-28T07:45:03.512Z,1024.51
2023-03-28T07:50:03.389Z,1024.49
2023-03-28T07:55:03.626Z,1024.54
2023-03-28T08:00:03.276Z,1024.53
2023-03-28T08:05:03.414Z,1024.62
2023-03-28T08:10:02.903Z,1024.7
2023-03-28T08:15:03.654Z,1024.7
2023-03-28T08:20:03.632Z,1024.66
2023-03-28T08:25:03.081Z,1024.76
2023-03-28T08:30:03.000Z,1024.81
2023-03-28T08:35:03.706Z,1024.77
2023-03-28T08:40:03.452Z,1024.78
2023-03-28T08:45:03.277Z,1024.82
2023-03-28T08:50:03.212Z,1024.87
2023-03-28T08:55:03.581Z,1024.93
2023-03-28T09:00:03.020Z,1024.94
2023-03-28T09:05:24.438Z,1025.02
2023-03-28T09:10:03.301Z,1024.9
2023-03-28T09:15:03.272Z,1025.01
2023-03-28T09:20:03.048Z,1025.18
2023-03-28T09:25:03.064Z,1025.19
2023-03-28T09:30:03.828Z,1025.22
2023-03-28T09:35:03.649Z,1025.3
2023-03-28T09:40:03.395Z,1025.19
2023-03-28T09:45:03.148Z,1025.26
2023-03-28T09:50:14.108Z,1025.26
2023-03-28T09:55:03.327Z,1025.27
2023-03-28T10:00:02.814Z,1025.23
2023-03-28T10:05:07.017Z,1025.39
2023-03-28T10:10:02.960Z,1025.38
2023-03-28T10:15:03.626Z,1025.31
2023-03-28T10:20:03.421Z,1025.33
2023-03-28T10:25:03.157Z,1025.42
2023-03-28T10:30:03.183Z,1025.32
2023-03-28T10:35:03.335Z,1025.28
2023-03-28T10:40:03.325Z,1025.2
2023-03-28T10:45:03.239Z,1025.18
2023-03-28T10:50:03.595Z,1025.24
2023-03-28T10:55:03.393Z,1025.28
2023-03-28T11:00:03.199Z,1025.19
2023-03-28T11:05:02.894Z,1025.2
2023-03-28T11:10:03.644Z,1025.31
2023-03-28T11:15:03.556Z,1025.33
2023-03-28T11:20:03.283Z,1025.3
2023-03-28T11:25:03.149Z,1025.14
2023-03-28T11:30:02.981Z,1025.28
2023-03-28T11:35:03.537Z,1025.16
2023-03-28T11:40:10.940Z,1025.19
2023-03-28T11:45:03.467Z,1025.12
2023-03-28T11:50:03.243Z,1025.13
2023-03-28T11:55:03.061Z,1025.23
2023-03-28T12:00:03.646Z,1025.22
2023-03-28T12:05:03.360Z,1025.05
2023-03-28T12:10:03.106Z,1025.01
2023-03-28T12:15:03.718Z,1025.2
2023-03-28T12:20:03.679Z,1025.02
2023-03-28T12:25:03.443Z,1025.15
2023-03-28T12:30:03.139Z,1025
2023-03-28T12:35:04.019Z,1025.03
2023-03-28T12:40:03.229Z,1024.97
2023-03-28T12:45:03.184Z,1024.82
2023-03-28T12:50:03.250Z,1024.97
2023-03-28T12:55:03.279Z,1024.97
2023-03-28T13:00:03.616Z,1024.93
2023-03-28T13:05:03.425Z,1024.98
2023-03-28T13:10:03.126Z,1025
2023-03-28T13:15:02.948Z,1024.89
2023-03-28T13:20:03.624Z,1024.97
2023-03-28T13:25:03.624Z,1025
2023-03-28T13:30:03.367Z,1024.98
2023-03-28T13:35:03.083Z,1024.95
2023-03-28T13:40:03.189Z,1024.88
2023-03-28T13:45:03.213Z,1024.82
2023-03-28T13:50:03.689Z,1024.84
2023-03-28T13:55:03.572Z,1024.81
2023-03-28T14:00:03.248Z,1024.88
2023-03-28T14:05:02.962Z,1024.83
2023-03-28T14:10:02.855Z,1024.91
2023-03-28T14:15:03.723Z,1024.75
2023-03-28T14:20:03.677Z,1024.74
2023-03-28T14:25:03.348Z,1024.81
2023-03-28T14:30:03.166Z,1024.81
2023-03-28T14:35:02.867Z,1024.8
2023-03-28T14:40:02.910Z,1024.74
2023-03-28T14:45:03.619Z,1024.84
2023-03-28T14:50:03.612Z,1024.8
2023-03-28T14:55:03.507Z,1024.81
2023-03-28T15:00:03.572Z,1024.83
2023-03-28T15:05:03.055Z,1024.79
2023-03-28T15:10:02.942Z,1024.71
2023-03-28T15:15:03.807Z,1024.85
2023-03-28T15:20:03.574Z,1024.82
2023-03-28T15:25:03.552Z,1024.84
2023-03-28T15:30:03.201Z,1024.93
2023-03-28T15:35:02.921Z,1024.86
2023-03-28T15:40:04.578Z,1024.91
2023-03-28T15:45:03.352Z,1024.92
2023-03-28T15:50:04.237Z,1024.88
2023-03-28T15:55:04.658Z,1024.85
2023-03-28T16:00:03.556Z,1024.82
2023-03-28T16:05:03.689Z,1024.8
2023-03-28T16:10:03.326Z,1024.87
2023-03-28T16:15:03.234Z,1024.81
2023-03-28T16:20:03.011Z,1024.85
2023-03-28T16:25:03.680Z,1024.77
2023-03-28T16:30:03.641Z,1024.81
2023-03-28T16:35:03.729Z,1024.81
2023-03-28T16:40:05.030Z,1024.8
2023-03-28T16:45:02.963Z,1024.85
2023-03-28T16:50:03.724Z,1024.82
2023-03-28T16:55:03.818Z,1024.73
2023-03-28T17:00:03.319Z,1024.75
2023-03-28T17:05:03.388Z,1024.72
2023-03-28T17:10:03.565Z,1024.71
2023-03-28T17:15:03.319Z,1024.79
2023-03-28T17:20:03.099Z,1024.74
2023-03-28T17:25:02.840Z,1024.75
2023-03-28T17:30:04.337Z,1024.66
2023-03-28T17:35:03.548Z,1024.6
2023-03-28T17:40:03.772Z,1024.54
2023-03-28T17:45:03.423Z,1024.5
2023-03-28T17:50:03.245Z,1024.59
2023-03-28T17:55:03.426Z,1024.59
2023-03-28T18:00:03.029Z,1024.66
2023-03-28T18:05:03.861Z,1024.6
2023-03-28T18:10:03.408Z,1024.54
2023-03-28T18:15:03.059Z,1024.55
2023-03-28T18:20:02.844Z,1024.59
2023-03-28T18:25:03.757Z,1024.55
2023-03-28T18:30:03.627Z,1024.61
2023-03-28T18:35:03.329Z,1024.57
2023-03-28T18:40:03.170Z,1024.47
2023-03-28T18:45:03.180Z,1024.55
2023-03-28T18:50:02.845Z,1024.57
2023-03-28T18:55:03.463Z,1024.58
2023-03-28T19:00:03.385Z,1024.67
2023-03-28T19:05:03.072Z,1024.62
2023-03-28T19:10:02.961Z,1024.66
2023-03-28T19:15:02.799Z,1024.62
2023-03-28T19:20:03.116Z,1024.51
2023-03-28T19:25:03.011Z,1024.6
2023-03-28T19:30:03.907Z,1024.48
2023-03-28T19:35:03.655Z,1024.54
2023-03-28T19:40:04.403Z,1024.39
2023-03-28T19:45:03.279Z,1024.5
2023-03-28T19:50:02.925Z,1024.36
2023-03-28T19:55:04.032Z,1024.4
2023-03-28T20:00:03.454Z,1024.32
2023-03-28T20:05:02.999Z,1024.27
2023-03-28T20:10:03.750Z,1024.18
2023-03-28T20:15:03.575Z,1024.12
2023-03-28T20:20:03.440Z,1023.99
2023-03-28T20:25:03.184Z,1024.02
2023-03-28T20:30:03.094Z,1023.95
2023-03-28T20:35:03.700Z,1023.92
2023-03-28T20:40:03.392Z,1023.86
2023-03-28T20:45:03.204Z,1023.88
2023-03-28T20:50:02.875Z,1023.91
2023-03-28T20:55:03.805Z,1023.88
2023-03-28T21:00:03.501Z,1023.8
2023-03-28T21:05:03.524Z,1023.89
2023-03-28T21:10:02.936Z,1023.83
2023-03-28T21:15:02.828Z,1023.81
2023-03-28T21:20:06.187Z,1023.73
2023-03-28T21:25:03.777Z,1023.64
2023-03-28T21:30:03.385Z,1023.55
2023-03-28T21:35:03.486Z,1023.67
2023-03-28T21:40:03.134Z,1023.61
2023-03-28T21:45:02.886Z,1023.7
2023-03-28T21:50:03.553Z,1023.65
2023-03-28T21:55:04.351Z,1023.5
2023-03-28T22:00:03.546Z,1023.46
2023-03-28T22:05:03.322Z,1023.39
2023-03-28T22:10:03.107Z,1023.41
2023-03-28T22:15:03.165Z,1023.41
2023-03-28T22:20:03.221Z,1023.44
2023-03-28T22:25:03.104Z,1023.27
2023-03-28T22:30:03.871Z,1023.32
2023-03-28T22:35:03.534Z,1023.19
2023-03-28T22:40:03.383Z,1023.14
2023-03-28T22:45:03.101Z,1023.21
2023-03-28T22:50:03.764Z,1023.08
2023-03-28T22:55:03.384Z,1023.16
2023-03-28T23:00:03.820Z,1023.07
2023-03-28T23:05:03.738Z,1023.07
2023-03-28T23:10:03.560Z,1022.96
2023-03-28T23:15:02.990Z,1022.96
2023-03-28T23:20:02.951Z,1022.91
2023-03-28T23:25:03.659Z,1022.87
2023-03-28T23:30:03.688Z,1022.69
2023-03-28T23:35:03.372Z,1022.7
2023-03-28T23:40:03.367Z,1022.72
2023-03-28T23:45:03.100Z,1022.68
2023-03-28T23:50:04.090Z,1022.48
2023-03-28T23:55:04.003Z,1022.55
